KNK weather

Kokhanok Airport
Kokhanok, Alaska, United States

Public forecast

Using degrees Fahrenheit for public forecast. Weather courtesy of forecast.io.

METAR (pilot weather report)

Closest report is Iliamna Airport, 19.6 nm (36.2 km) N. Retrieved 2019/07/19 06:53 UTC (9 minutes ago):

PAIL 190653Z AUTO 30009KT 3SM HZ OVC047 18/11 A2994 RMK AO2 SLP139 T01830111 TSNO

TAF (pilot weather forecast)

Closest forecast is Iliamna Airport, 19.6 nm (36.2 km) N. Retrieved 2019/07/19 06:39 UTC (23 minutes ago):

TAF PAIL 190536Z 1906/2006 30007KT P6SM BKN080